createdAt,value
2024-01-16T00:00:59.577Z,3.80
2024-01-16T00:03:26.945Z,3.40
2024-01-16T00:05:53.962Z,3.27
2024-01-16T00:08:20.786Z,3.00
2024-01-16T00:10:47.647Z,3.40
2024-01-16T00:13:15.091Z,3.23
2024-01-16T00:15:42.773Z,3.27
2024-01-16T00:18:10.102Z,3.30
2024-01-16T00:20:37.155Z,4.03
2024-01-16T00:23:04.396Z,3.20
2024-01-16T00:25:31.734Z,3.37
2024-01-16T00:27:58.559Z,3.37
2024-01-16T00:30:25.393Z,2.93
2024-01-16T00:32:52.932Z,3.78
2024-01-16T00:35:20.164Z,4.10
2024-01-16T00:37:47.098Z,3.00
2024-01-16T00:40:14.412Z,4.27
2024-01-16T00:42:41.419Z,3.57
2024-01-16T00:45:08.509Z,3.10
2024-01-16T00:47:35.584Z,3.50
2024-01-16T00:50:03.309Z,3.00
2024-01-16T00:52:30.591Z,4.17
2024-01-16T00:54:57.464Z,3.20
2024-01-16T00:57:24.306Z,3.40
2024-01-16T00:59:51.175Z,4.27
2024-01-16T01:02:18.098Z,3.17
2024-01-16T01:04:45.097Z,3.57
2024-01-16T01:07:15.282Z,3.13
2024-01-16T01:09:42.329Z,3.57
2024-01-16T01:12:09.814Z,3.13
2024-01-16T01:14:36.748Z,3.10
2024-01-16T01:17:03.892Z,3.30
2024-01-16T01:19:30.862Z,3.63
2024-01-16T01:21:57.688Z,3.60
2024-01-16T01:24:24.512Z,4.00
2024-01-16T01:26:51.424Z,3.37
2024-01-16T01:29:18.485Z,3.30
2024-01-16T01:31:49.030Z,3.60
2024-01-16T01:34:17.223Z,3.80
2024-01-16T01:36:44.507Z,3.47
2024-01-16T01:39:12.251Z,3.67
2024-01-16T01:41:40.234Z,3.83
2024-01-16T01:44:07.553Z,3.83
2024-01-16T01:46:36.761Z,3.37
2024-01-16T01:49:04.722Z,3.73
2024-01-16T01:51:32.040Z,3.97
2024-01-16T01:53:59.755Z,3.50
2024-01-16T01:56:27.320Z,3.13
2024-01-16T01:58:59.607Z,3.63
2024-01-16T02:01:29.029Z,3.10
2024-01-16T02:03:57.770Z,3.80
2024-01-16T02:06:24.728Z,3.80
2024-01-16T02:08:52.381Z,3.53
2024-01-16T02:11:19.253Z,3.20
2024-01-16T02:13:46.588Z,3.87
2024-01-16T02:16:21.063Z,3.50
2024-01-16T02:18:48.579Z,3.80
2024-01-16T02:21:22.711Z,2.87
2024-01-16T02:23:49.809Z,3.30
2024-01-16T02:26:18.242Z,3.33
2024-01-16T02:28:45.155Z,3.53
2024-01-16T02:31:12.352Z,3.77
2024-01-16T02:33:39.538Z,3.50
2024-01-16T02:36:06.761Z,3.60
2024-01-16T02:38:33.894Z,3.77
2024-01-16T02:41:01.289Z,3.70
2024-01-16T02:43:28.534Z,3.60
2024-01-16T02:45:55.444Z,3.57
2024-01-16T02:48:22.437Z,4.13
2024-01-16T02:50:49.496Z,3.93
2024-01-16T02:53:16.743Z,3.43
2024-01-16T02:55:43.692Z,3.27
2024-01-16T02:58:11.020Z,3.93
2024-01-16T03:00:38.421Z,3.77
2024-01-16T03:03:05.998Z,3.57
2024-01-16T03:05:32.999Z,3.17
2024-01-16T03:08:00.129Z,3.70
2024-01-16T03:10:27.279Z,3.50
2024-01-16T03:12:54.131Z,3.27
2024-01-16T03:15:21.337Z,3.03
2024-01-16T03:17:49.300Z,3.63
2024-01-16T03:20:17.482Z,3.47
2024-01-16T03:22:45.295Z,3.77
2024-01-16T03:25:13.252Z,3.47
2024-01-16T03:27:40.137Z,3.10
2024-01-16T03:30:07.953Z,3.73
2024-01-16T03:32:36.424Z,3.07
2024-01-16T03:35:03.516Z,3.43
2024-01-16T03:37:30.588Z,3.70
2024-01-16T03:39:58.103Z,3.30
2024-01-16T03:42:25.271Z,3.37
2024-01-16T03:44:52.749Z,4.07
2024-01-16T03:47:19.910Z,2.90
2024-01-16T03:49:47.530Z,2.80
2024-01-16T03:52:14.379Z,3.43
2024-01-16T03:54:41.276Z,3.10
2024-01-16T03:57:08.109Z,3.47
2024-01-16T03:59:38.565Z,3.00
2024-01-16T04:02:05.517Z,2.80
2024-01-16T04:04:32.339Z,3.13
2024-01-16T04:06:59.233Z,2.90
2024-01-16T04:09:26.120Z,3.03
2024-01-16T04:11:53.118Z,3.60
2024-01-16T04:14:20.032Z,3.27
2024-01-16T04:16:47.035Z,3.00
2024-01-16T04:19:13.999Z,2.83
2024-01-16T04:21:40.870Z,2.97
2024-01-16T04:24:08.352Z,3.30
2024-01-16T04:26:38.502Z,2.87
2024-01-16T04:29:06.128Z,2.87
2024-01-16T04:31:40.207Z,2.60
2024-01-16T04:34:07.315Z,2.73
2024-01-16T04:36:34.194Z,3.60
2024-01-16T04:39:01.464Z,3.17
2024-01-16T04:41:28.752Z,3.07
2024-01-16T04:43:55.576Z,3.00
2024-01-16T04:46:22.370Z,3.13
2024-01-16T04:48:49.304Z,2.97
2024-01-16T04:51:16.196Z,3.73
2024-01-16T04:53:43.057Z,3.10
2024-01-16T04:56:09.934Z,3.40
2024-01-16T04:58:37.073Z,3.27
2024-01-16T05:01:04.009Z,2.97
2024-01-16T05:03:30.932Z,3.90
2024-01-16T05:05:58.062Z,3.07
2024-01-16T05:08:25.425Z,2.80
2024-01-16T05:10:52.423Z,3.63
2024-01-16T05:13:19.395Z,3.60
2024-01-16T05:15:46.419Z,3.87
2024-01-16T05:18:13.464Z,4.20
2024-01-16T05:20:41.353Z,3.83
2024-01-16T05:23:08.340Z,3.50
2024-01-16T05:25:35.226Z,3.87
2024-01-16T05:28:02.028Z,4.20
2024-01-16T05:30:28.967Z,4.03
2024-01-16T05:32:56.309Z,4.13
2024-01-16T05:35:25.789Z,3.87
2024-01-16T05:37:52.873Z,2.93
2024-01-16T05:40:19.674Z,3.70
2024-01-16T05:42:46.622Z,3.17
2024-01-16T05:45:14.771Z,4.40
2024-01-16T05:47:41.685Z,3.90
2024-01-16T05:50:10.029Z,3.47
2024-01-16T05:52:37.145Z,3.87
2024-01-16T05:55:06.065Z,3.60
2024-01-16T05:57:34.512Z,3.70
2024-01-16T06:00:04.670Z,3.63
2024-01-16T06:02:33.105Z,3.67
2024-01-16T06:05:00.037Z,3.77
2024-01-16T06:07:26.952Z,3.33
2024-01-16T06:09:54.059Z,3.40
2024-01-16T06:12:21.355Z,3.30
2024-01-16T06:14:48.280Z,3.47
2024-01-16T06:17:15.259Z,3.23
2024-01-16T06:19:42.090Z,3.30
2024-01-16T06:22:09.976Z,3.27
2024-01-16T06:24:37.760Z,3.37
2024-01-16T06:27:07.393Z,3.83
2024-01-16T06:29:35.724Z,3.60
2024-01-16T06:32:03.014Z,3.43
2024-01-16T06:34:30.176Z,3.80
2024-01-16T06:36:57.641Z,3.47
2024-01-16T06:39:24.518Z,3.10
2024-01-16T06:41:51.685Z,3.17
2024-01-16T06:44:20.003Z,2.90
2024-01-16T06:46:47.162Z,3.13
2024-01-16T06:49:14.103Z,3.07
2024-01-16T06:51:40.957Z,2.93
2024-01-16T06:54:07.988Z,3.17
2024-01-16T06:56:34.928Z,4.10
2024-01-16T06:59:01.854Z,3.57
2024-01-16T07:01:28.877Z,3.73
2024-01-16T07:03:55.882Z,3.13
2024-01-16T07:06:23.107Z,3.30
2024-01-16T07:08:50.278Z,3.17
2024-01-16T07:11:17.229Z,3.33
2024-01-16T07:13:44.885Z,3.10
2024-01-16T07:16:12.736Z,3.17
2024-01-16T07:18:40.794Z,3.40
2024-01-16T07:21:22.052Z,4.43
2024-01-16T07:23:49.226Z,3.77
2024-01-16T07:26:17.602Z,3.27
2024-01-16T07:29:10.507Z,2.80
2024-01-16T07:31:37.875Z,2.97
2024-01-16T07:34:12.856Z,3.27
2024-01-16T07:36:39.800Z,3.10
2024-01-16T07:39:06.810Z,3.47
2024-01-16T07:41:33.822Z,2.80
2024-01-16T07:44:00.775Z,2.70
2024-01-16T07:46:27.772Z,3.47
2024-01-16T07:48:54.847Z,3.10
2024-01-16T07:51:22.349Z,3.30
2024-01-16T07:53:51.568Z,3.13
2024-01-16T07:56:18.573Z,3.70
2024-01-16T07:58:45.696Z,3.67
2024-01-16T08:01:12.645Z,3.63
2024-01-16T08:04:05.667Z,3.50
2024-01-16T08:06:33.137Z,3.27
2024-01-16T08:09:00.232Z,3.43
2024-01-16T08:11:27.415Z,3.27
2024-01-16T08:13:54.504Z,3.47
2024-01-16T08:16:21.969Z,3.47
2024-01-16T08:18:49.049Z,3.50
2024-01-16T08:21:16.073Z,3.63
2024-01-16T08:23:43.226Z,3.83
2024-01-16T08:26:11.755Z,3.03
2024-01-16T08:28:38.934Z,3.67
2024-01-16T08:31:06.206Z,3.57
2024-01-16T08:33:39.969Z,3.60
2024-01-16T08:36:10.730Z,3.30
2024-01-16T08:38:37.822Z,3.23
2024-01-16T08:41:07.460Z,3.37
2024-01-16T08:43:35.156Z,3.23
2024-01-16T08:46:02.345Z,3.70
2024-01-16T08:48:29.850Z,3.67
2024-01-16T08:50:57.266Z,3.43
2024-01-16T08:53:24.620Z,3.27
2024-01-16T08:55:51.884Z,3.90
2024-01-16T08:58:18.699Z,4.00
2024-01-16T09:00:45.535Z,3.30
2024-01-16T09:03:13.122Z,3.30
2024-01-16T09:05:40.589Z,3.53
2024-01-16T09:08:10.318Z,3.70
2024-01-16T09:10:38.771Z,3.27
2024-01-16T09:13:05.617Z,3.80
2024-01-16T09:15:32.506Z,3.80
2024-01-16T09:17:59.533Z,3.27
2024-01-16T09:20:26.486Z,2.87
2024-01-16T09:22:53.408Z,3.63
2024-01-16T09:25:21.023Z,3.77
2024-01-16T09:27:48.142Z,3.50
2024-01-16T09:30:15.300Z,3.23
2024-01-16T09:32:43.703Z,3.50
2024-01-16T09:35:11.719Z,3.23
2024-01-16T09:37:40.853Z,3.77
2024-01-16T09:40:08.694Z,3.57
2024-01-16T09:42:35.614Z,2.93
2024-01-16T09:45:05.897Z,2.83
2024-01-16T09:47:33.642Z,3.47
2024-01-16T09:50:03.942Z,3.10
2024-01-16T09:52:31.698Z,3.57
2024-01-16T09:55:00.057Z,2.60
2024-01-16T09:57:27.803Z,2.80
2024-01-16T09:59:56.519Z,3.33
2024-01-16T10:02:26.776Z,3.57
2024-01-16T10:04:54.180Z,3.23
2024-01-16T10:07:28.724Z,2.93
2024-01-16T10:09:58.959Z,3.00
2024-01-16T10:12:26.439Z,2.70
2024-01-16T10:14:55.048Z,2.80
2024-01-16T10:17:22.144Z,3.00
2024-01-16T10:19:51.030Z,3.20
2024-01-16T10:22:28.571Z,3.37
2024-01-16T10:25:04.222Z,3.03
2024-01-16T10:27:32.219Z,2.70
2024-01-16T10:29:59.781Z,2.63
2024-01-16T10:32:39.872Z,3.20
2024-01-16T10:35:12.400Z,3.27
2024-01-16T10:37:49.674Z,3.77
2024-01-16T10:40:23.795Z,3.40
2024-01-16T10:43:00.852Z,3.17
2024-01-16T10:45:28.262Z,3.73
2024-01-16T10:48:06.244Z,3.03
2024-01-16T10:50:34.742Z,3.17
2024-01-16T10:53:05.031Z,3.00
2024-01-16T10:55:36.108Z,3.50
2024-01-16T10:58:06.091Z,3.40
2024-01-16T11:00:37.534Z,3.33
2024-01-16T11:03:12.196Z,3.10
2024-01-16T11:05:41.095Z,3.43
2024-01-16T11:08:11.068Z,2.80
2024-01-16T11:10:38.731Z,3.03
2024-01-16T11:13:06.843Z,3.37
2024-01-16T11:15:34.148Z,2.80
2024-01-16T11:18:02.713Z,3.37
2024-01-16T11:20:54.707Z,2.93
2024-01-16T11:23:18.100Z,3.23
2024-01-16T11:25:44.950Z,4.03
2024-01-16T11:28:14.386Z,3.90
2024-01-16T11:30:42.469Z,3.67
2024-01-16T11:33:34.906Z,4.10
2024-01-16T11:36:02.697Z,3.50
2024-01-16T11:38:33.665Z,3.90
2024-01-16T11:41:00.650Z,3.93
2024-01-16T11:43:34.294Z,4.03
2024-01-16T11:46:08.692Z,3.67
2024-01-16T11:48:36.705Z,4.03
2024-01-16T11:51:24.835Z,3.70
2024-01-16T11:53:52.407Z,3.03
2024-01-16T11:56:43.929Z,4.00
2024-01-16T11:59:26.639Z,4.10
2024-01-16T12:01:58.051Z,3.70
2024-01-16T12:04:24.977Z,4.10
2024-01-16T12:06:59.871Z,3.57
2024-01-16T12:09:28.824Z,3.63
2024-01-16T12:12:02.405Z,4.00
2024-01-16T12:14:30.219Z,4.03
2024-01-16T12:17:11.892Z,3.70
2024-01-16T12:19:41.363Z,3.87
2024-01-16T12:22:10.776Z,4.10
2024-01-16T12:24:41.022Z,3.97
2024-01-16T12:27:09.339Z,3.87
2024-01-16T12:29:37.027Z,4.03
2024-01-16T12:32:08.415Z,4.57
2024-01-16T12:34:36.350Z,4.27
2024-01-16T12:37:07.900Z,3.93
2024-01-16T12:39:36.401Z,3.83
2024-01-16T12:42:04.132Z,4.07
2024-01-16T12:44:31.510Z,4.27
2024-01-16T12:46:59.069Z,4.10
2024-01-16T12:49:26.423Z,3.73
2024-01-16T12:52:21.650Z,3.43
2024-01-16T12:54:50.339Z,3.87
2024-01-16T12:57:21.440Z,3.67
2024-01-16T12:59:50.343Z,3.57
2024-01-16T13:02:25.682Z,3.77
2024-01-16T13:05:00.969Z,3.60
2024-01-16T13:07:28.753Z,3.83
2024-01-16T13:10:13.249Z,4.23
2024-01-16T13:12:40.469Z,4.27
2024-01-16T13:15:07.887Z,4.00
2024-01-16T13:17:37.682Z,3.70
2024-01-16T13:20:08.866Z,4.13
2024-01-16T13:22:43.439Z,3.37
2024-01-16T13:25:13.297Z,4.07
2024-01-16T13:27:40.136Z,4.23
2024-01-16T13:30:07.969Z,4.70
2024-01-16T13:32:37.938Z,4.00
2024-01-16T13:35:09.085Z,4.13
2024-01-16T13:37:38.639Z,4.03
2024-01-16T13:40:16.770Z,3.90
2024-01-16T13:42:44.062Z,4.30
2024-01-16T13:45:14.373Z,3.73
2024-01-16T13:47:42.213Z,4.33
2024-01-16T13:50:09.786Z,4.43
2024-01-16T13:52:43.087Z,3.90
2024-01-16T13:55:10.303Z,3.80
2024-01-16T13:57:37.615Z,3.83
2024-01-16T14:00:06.016Z,4.10
2024-01-16T14:02:39.846Z,4.23
2024-01-16T14:05:09.052Z,4.03
2024-01-16T14:07:39.877Z,3.70
2024-01-16T14:10:11.214Z,4.60
2024-01-16T14:12:38.153Z,3.53
2024-01-16T14:15:12.365Z,4.23
2024-01-16T14:17:39.534Z,4.47
2024-01-16T14:20:06.979Z,3.93
2024-01-16T14:22:33.955Z,4.03
2024-01-16T14:25:00.812Z,4.23
2024-01-16T14:27:27.596Z,4.07
2024-01-16T14:29:55.327Z,5.37
2024-01-16T14:32:22.636Z,4.37
2024-01-16T14:34:49.496Z,4.03
2024-01-16T14:37:17.922Z,5.53
2024-01-16T14:39:45.458Z,4.70
2024-01-16T14:42:15.541Z,5.40
2024-01-16T14:45:15.269Z,3.97
2024-01-16T14:48:22.270Z,4.07
2024-01-16T14:50:53.324Z,3.13
2024-01-16T14:53:20.505Z,4.53
2024-01-16T14:56:14.275Z,4.63
2024-01-16T14:58:59.041Z,4.67
2024-01-16T15:13:53.933Z,4.50
2024-01-16T15:16:37.387Z,4.57
2024-01-16T15:19:13.343Z,5.50
2024-01-16T15:21:40.533Z,4.93
2024-01-16T15:24:07.847Z,5.00
2024-01-16T15:26:34.806Z,5.40
2024-01-16T15:29:01.799Z,5.67
2024-01-16T15:31:29.616Z,5.20
2024-01-16T15:34:00.118Z,5.47
2024-01-16T15:40:20.389Z,4.13
2024-01-16T15:43:16.788Z,3.90
2024-01-16T15:45:43.926Z,4.57
2024-01-16T15:48:11.006Z,4.43
2024-01-16T15:50:39.204Z,4.27
2024-01-16T15:53:09.780Z,5.50
2024-01-16T15:55:53.180Z,5.77
2024-01-16T15:58:22.833Z,7.77
2024-01-16T16:00:49.838Z,6.30
2024-01-16T16:03:16.809Z,5.90
2024-01-16T16:05:44.243Z,5.90
2024-01-16T16:08:11.882Z,6.87
2024-01-16T16:13:48.610Z,5.77
2024-01-16T16:16:15.835Z,6.33
2024-01-16T16:18:42.912Z,7.30
2024-01-16T16:21:10.585Z,8.10
2024-01-16T16:23:37.583Z,6.20
2024-01-16T16:26:06.437Z,6.07
2024-01-16T16:28:33.367Z,5.77
2024-01-16T16:31:00.812Z,5.00
2024-01-16T16:33:27.976Z,5.20
2024-01-16T16:35:54.933Z,5.83
2024-01-16T16:38:21.859Z,5.50
2024-01-16T16:40:48.779Z,4.97
2024-01-16T16:43:16.049Z,5.73
2024-01-16T16:45:44.301Z,5.40
2024-01-16T16:48:11.332Z,5.23
2024-01-16T16:50:38.276Z,4.90
2024-01-16T16:53:07.326Z,4.23
2024-01-16T16:55:34.209Z,5.17
2024-01-16T16:58:01.100Z,5.73
2024-01-16T17:00:28.066Z,6.63
2024-01-16T17:02:54.980Z,5.97
2024-01-16T17:05:22.074Z,5.57
2024-01-16T17:07:49.047Z,6.13
2024-01-16T17:10:16.697Z,6.83
2024-01-16T17:12:44.402Z,6.97
2024-01-16T17:15:11.299Z,5.73
2024-01-16T17:17:38.411Z,6.70
2024-01-16T17:20:08.137Z,6.17
2024-01-16T17:22:35.134Z,6.23
2024-01-16T17:25:02.155Z,6.37
2024-01-16T17:27:29.587Z,5.90
2024-01-16T17:29:56.733Z,7.13
2024-01-16T17:32:24.474Z,6.70
2024-01-16T17:34:51.830Z,6.10
2024-01-16T17:37:18.978Z,5.37
2024-01-16T17:39:47.231Z,5.97
2024-01-16T17:42:14.309Z,5.63
2024-01-16T17:47:50.108Z,5.20
2024-01-16T17:50:38.811Z,5.53
2024-01-16T17:53:19.567Z,4.97
2024-01-16T17:55:47.570Z,4.53
2024-01-16T17:58:18.753Z,4.97
2024-01-16T18:00:53.011Z,5.80
2024-01-16T18:04:02.569Z,6.40
2024-01-16T18:13:16.102Z,6.37
2024-01-16T18:15:43.016Z,5.67
2024-01-16T18:18:14.232Z,6.13
2024-01-16T18:20:42.576Z,5.60
2024-01-16T18:23:10.830Z,4.50
2024-01-16T18:25:37.778Z,4.43
2024-01-16T18:28:05.291Z,4.50
2024-01-16T18:30:34.258Z,4.80
2024-01-16T18:33:02.227Z,5.43
2024-01-16T18:35:29.727Z,4.77
2024-01-16T18:37:56.684Z,4.60
2024-01-16T18:40:24.579Z,4.30
2024-01-16T18:42:51.612Z,4.93
2024-01-16T18:45:19.217Z,3.87
2024-01-16T18:47:49.129Z,4.90
2024-01-16T18:50:18.612Z,6.47
2024-01-16T18:52:46.643Z,6.50
2024-01-16T18:55:14.618Z,6.13
2024-01-16T18:57:42.490Z,5.20
2024-01-16T19:00:14.400Z,4.90
2024-01-16T19:02:43.222Z,4.90
2024-01-16T19:05:14.670Z,4.17
2024-01-16T19:07:45.841Z,5.30
2024-01-16T19:10:14.487Z,5.43
2024-01-16T19:12:48.980Z,3.87
2024-01-16T19:15:21.099Z,3.90
2024-01-16T19:17:49.630Z,3.60
2024-01-16T19:20:17.180Z,4.47
2024-01-16T19:22:45.938Z,4.40
2024-01-16T19:25:22.806Z,5.47
2024-01-16T19:27:52.537Z,4.93
2024-01-16T19:30:22.716Z,4.57
2024-01-16T19:33:01.458Z,4.87
2024-01-16T19:35:35.911Z,5.80
2024-01-16T19:38:20.175Z,6.53
2024-01-16T19:41:00.625Z,5.90
2024-01-16T19:43:30.190Z,4.60
2024-01-16T19:46:09.513Z,4.90
2024-01-16T19:48:49.089Z,5.20
2024-01-16T19:51:21.681Z,4.37
2024-01-16T19:53:52.571Z,4.37
2024-01-16T19:56:32.146Z,4.90
2024-01-16T19:59:14.935Z,5.40
2024-01-16T20:01:46.039Z,5.00
2024-01-16T20:04:23.820Z,5.23
2024-01-16T20:06:58.781Z,5.20
2024-01-16T20:09:34.723Z,4.47
2024-01-16T20:12:14.557Z,4.80
2024-01-16T20:14:50.643Z,4.90
2024-01-16T20:20:13.602Z,6.90
2024-01-16T20:23:28.107Z,6.27
2024-01-16T20:25:56.683Z,5.90
2024-01-16T20:28:24.395Z,7.10
2024-01-16T20:30:54.700Z,5.77
2024-01-16T20:33:26.527Z,4.70
2024-01-16T20:35:55.488Z,5.77
2024-01-16T20:38:25.994Z,5.03
2024-01-16T20:40:58.090Z,5.27
2024-01-16T20:43:26.985Z,5.20
2024-01-16T20:45:55.874Z,5.10
2024-01-16T20:48:23.122Z,5.67
2024-01-16T20:50:50.237Z,8.90
2024-01-16T20:53:17.544Z,6.40
2024-01-16T20:55:44.584Z,6.23
2024-01-16T20:58:11.680Z,6.23
2024-01-16T21:00:38.933Z,5.57
2024-01-16T21:03:09.975Z,5.27
2024-01-16T21:05:37.562Z,5.47
2024-01-16T21:08:06.013Z,6.03
2024-01-16T21:10:33.806Z,5.33
2024-01-16T21:13:00.999Z,5.97
2024-01-16T21:15:27.971Z,5.57
2024-01-16T21:17:54.984Z,5.17
2024-01-16T21:20:21.883Z,5.57
2024-01-16T21:22:48.791Z,6.07
2024-01-16T21:25:15.941Z,5.63
2024-01-16T21:27:46.380Z,5.73
2024-01-16T21:30:13.612Z,5.20
2024-01-16T21:32:40.606Z,5.83
2024-01-16T21:35:10.454Z,5.00
2024-01-16T21:37:38.277Z,5.10
2024-01-16T21:40:07.441Z,6.03
2024-01-16T21:42:35.747Z,5.33
2024-01-16T21:45:03.386Z,6.23
2024-01-16T21:47:31.688Z,5.10
2024-01-16T21:49:59.990Z,5.83
2024-01-16T21:52:29.376Z,4.50
2024-01-16T21:54:56.324Z,6.00
2024-01-16T21:57:23.713Z,5.40
2024-01-16T21:59:50.916Z,7.90
2024-01-16T22:02:18.544Z,6.80
2024-01-16T22:04:45.887Z,6.70
2024-01-16T22:07:12.799Z,5.73
2024-01-16T22:09:39.700Z,6.40
2024-01-16T22:12:07.594Z,7.80
2024-01-16T22:14:34.622Z,7.73
2024-01-16T22:17:02.344Z,8.80
2024-01-16T22:19:29.248Z,7.90
2024-01-16T22:21:56.398Z,6.47
2024-01-16T22:24:23.566Z,4.87
2024-01-16T22:26:50.490Z,6.27
2024-01-16T22:29:17.381Z,5.80
2024-01-16T22:31:45.076Z,5.33
2024-01-16T22:34:12.233Z,5.40
2024-01-16T22:36:40.782Z,5.27
2024-01-16T22:39:14.548Z,4.97
2024-01-16T22:41:46.306Z,4.67
2024-01-16T22:44:14.058Z,5.13
2024-01-16T22:46:41.030Z,4.30
2024-01-16T22:49:08.921Z,4.30
2024-01-16T22:51:39.003Z,4.07
2024-01-16T22:54:06.462Z,4.30
2024-01-16T22:56:33.836Z,4.93
2024-01-16T22:59:03.997Z,4.83
2024-01-16T23:01:31.971Z,4.87
2024-01-16T23:03:59.217Z,4.33
2024-01-16T23:06:29.878Z,5.80
2024-01-16T23:08:57.857Z,6.37
2024-01-16T23:11:25.829Z,8.77
2024-01-16T23:13:53.661Z,9.10
2024-01-16T23:16:20.565Z,9.53
2024-01-16T23:18:49.011Z,8.97
2024-01-16T23:21:17.972Z,8.57
2024-01-16T23:23:45.415Z,7.33
2024-01-16T23:26:12.982Z,6.00
2024-01-16T23:28:40.367Z,5.60
2024-01-16T23:31:08.729Z,5.97
2024-01-16T23:33:35.867Z,5.73
2024-01-16T23:36:03.060Z,5.43
2024-01-16T23:38:30.100Z,5.90
2024-01-16T23:40:58.796Z,5.30
2024-01-16T23:43:27.173Z,4.80
2024-01-16T23:45:55.472Z,6.17
2024-01-16T23:48:22.492Z,5.63
2024-01-16T23:50:49.803Z,5.23
2024-01-16T23:53:16.701Z,5.50
2024-01-16T23:55:43.615Z,5.27
2024-01-16T23:58:10.909Z,5.20
